sensor_id;sensor_type;location;lat;lon;timestamp;P1;durP1;ratioP1;P2;durP2;ratioP2
23614;SDS011;11985;49.404;7.734;2022-11-15T00:04:08;10.07;;;6.03;;
23614;SDS011;11985;49.404;7.734;2022-11-15T00:09:12;6.80;;;5.35;;
23614;SDS011;11985;49.404;7.734;2022-11-15T00:14:13;8.70;;;5.50;;
23614;SDS011;11985;49.404;7.734;2022-11-15T00:19:18;14.20;;;5.88;;
23614;SDS011;11985;49.404;7.734;2022-11-15T00:24:21;11.20;;;5.83;;
23614;SDS011;11985;49.404;7.734;2022-11-15T00:29:22;13.13;;;5.45;;
23614;SDS011;11985;49.404;7.734;2022-11-15T00:34:24;10.65;;;5.43;;
23614;SDS011;11985;49.404;7.734;2022-11-15T00:39:27;11.70;;;5.43;;
23614;SDS011;11985;49.404;7.734;2022-11-15T00:44:28;9.75;;;4.82;;
23614;SDS011;11985;49.404;7.734;2022-11-15T00:49:30;11.82;;;5.38;;
23614;SDS011;11985;49.404;7.734;2022-11-15T00:54:33;10.27;;;5.35;;
23614;SDS011;11985;49.404;7.734;2022-11-15T00:59:34;9.25;;;4.80;;
23614;SDS011;11985;49.404;7.734;2022-11-15T01:04:36;6.90;;;4.45;;
23614;SDS011;11985;49.404;7.734;2022-11-15T01:09:39;6.90;;;4.65;;
23614;SDS011;11985;49.404;7.734;2022-11-15T01:14:40;10.40;;;4.88;;
23614;SDS011;11985;49.404;7.734;2022-11-15T01:19:42;6.95;;;4.82;;
23614;SDS011;11985;49.404;7.734;2022-11-15T01:24:45;7.53;;;4.35;;
23614;SDS011;11985;49.404;7.734;2022-11-15T01:29:46;6.28;;;4.38;;
23614;SDS011;11985;49.404;7.734;2022-11-15T01:34:48;5.78;;;3.97;;
23614;SDS011;11985;49.404;7.734;2022-11-15T01:39:51;6.38;;;3.83;;
23614;SDS011;11985;49.404;7.734;2022-11-15T01:44:52;5.30;;;3.72;;
23614;SDS011;11985;49.404;7.734;2022-11-15T01:49:55;6.63;;;4.95;;
23614;SDS011;11985;49.404;7.734;2022-11-15T01:55:04;8.68;;;4.18;;
23614;SDS011;11985;49.404;7.734;2022-11-15T02:00:09;8.27;;;3.90;;
23614;SDS011;11985;49.404;7.734;2022-11-15T02:05:11;7.28;;;4.47;;
23614;SDS011;11985;49.404;7.734;2022-11-15T02:10:17;7.93;;;4.20;;
23614;SDS011;11985;49.404;7.734;2022-11-15T02:15:20;9.65;;;4.20;;
23614;SDS011;11985;49.404;7.734;2022-11-15T02:20:32;7.47;;;4.13;;
23614;SDS011;11985;49.404;7.734;2022-11-15T02:25:48;10.77;;;4.47;;
23614;SDS011;11985;49.404;7.734;2022-11-15T02:31:01;13.43;;;4.57;;
23614;SDS011;11985;49.404;7.734;2022-11-15T02:36:08;11.75;;;4.50;;
23614;SDS011;11985;49.404;7.734;2022-11-15T02:41:13;5.90;;;3.92;;
23614;SDS011;11985;49.404;7.734;2022-11-15T02:46:20;10.80;;;4.45;;
23614;SDS011;11985;49.404;7.734;2022-11-15T02:51:46;7.90;;;4.43;;
23614;SDS011;11985;49.404;7.734;2022-11-15T02:56:50;7.37;;;4.57;;
23614;SDS011;11985;49.404;7.734;2022-11-15T03:01:59;9.95;;;4.63;;
23614;SDS011;11985;49.404;7.734;2022-11-15T03:07:15;8.55;;;4.72;;
23614;SDS011;11985;49.404;7.734;2022-11-15T03:12:25;7.50;;;4.13;;
23614;SDS011;11985;49.404;7.734;2022-11-15T03:17:34;9.95;;;4.30;;
23614;SDS011;11985;49.404;7.734;2022-11-15T03:22:40;9.23;;;4.30;;
23614;SDS011;11985;49.404;7.734;2022-11-15T03:27:45;5.18;;;3.88;;
23614;SDS011;11985;49.404;7.734;2022-11-15T03:32:53;5.47;;;4.03;;
23614;SDS011;11985;49.404;7.734;2022-11-15T03:37:58;5.13;;;3.90;;
23614;SDS011;11985;49.404;7.734;2022-11-15T03:43:07;5.70;;;3.83;;
23614;SDS011;11985;49.404;7.734;2022-11-15T03:48:18;8.00;;;4.60;;
23614;SDS011;11985;49.404;7.734;2022-11-15T03:53:23;6.90;;;3.60;;
23614;SDS011;11985;49.404;7.734;2022-11-15T03:58:25;9.35;;;4.10;;
23614;SDS011;11985;49.404;7.734;2022-11-15T04:03:28;8.70;;;3.88;;
23614;SDS011;11985;49.404;7.734;2022-11-15T04:08:30;6.85;;;4.10;;
23614;SDS011;11985;49.404;7.734;2022-11-15T04:13:31;5.65;;;3.53;;
23614;SDS011;11985;49.404;7.734;2022-11-15T04:18:34;5.55;;;3.50;;
23614;SDS011;11985;49.404;7.734;2022-11-15T04:23:35;6.85;;;4.00;;
23614;SDS011;11985;49.404;7.734;2022-11-15T04:28:54;4.70;;;3.30;;
23614;SDS011;11985;49.404;7.734;2022-11-15T04:34:15;6.28;;;3.55;;
23614;SDS011;11985;49.404;7.734;2022-11-15T04:39:16;9.63;;;4.03;;
23614;SDS011;11985;49.404;7.734;2022-11-15T04:44:18;4.65;;;3.28;;
23614;SDS011;11985;49.404;7.734;2022-11-15T04:49:21;5.65;;;3.30;;
23614;SDS011;11985;49.404;7.734;2022-11-15T04:54:22;5.75;;;3.05;;
23614;SDS011;11985;49.404;7.734;2022-11-15T04:59:24;5.18;;;3.33;;
23614;SDS011;11985;49.404;7.734;2022-11-15T05:04:27;6.18;;;2.72;;
23614;SDS011;11985;49.404;7.734;2022-11-15T05:09:29;3.38;;;2.70;;
23614;SDS011;11985;49.404;7.734;2022-11-15T05:14:30;3.72;;;2.80;;
23614;SDS011;11985;49.404;7.734;2022-11-15T05:19:34;8.90;;;2.72;;
23614;SDS011;11985;49.404;7.734;2022-11-15T05:24:35;5.40;;;2.80;;
23614;SDS011;11985;49.404;7.734;2022-11-15T05:29:37;4.35;;;2.20;;
23614;SDS011;11985;49.404;7.734;2022-11-15T05:34:39;6.22;;;2.60;;
23614;SDS011;11985;49.404;7.734;2022-11-15T05:39:41;5.93;;;2.50;;
23614;SDS011;11985;49.404;7.734;2022-11-15T05:44:44;8.27;;;2.22;;
23614;SDS011;11985;49.404;7.734;2022-11-15T05:49:50;2.67;;;2.15;;
23614;SDS011;11985;49.404;7.734;2022-11-15T05:54:53;3.72;;;2.42;;
23614;SDS011;11985;49.404;7.734;2022-11-15T05:59:56;2.58;;;1.98;;
23614;SDS011;11985;49.404;7.734;2022-11-15T06:05:00;3.53;;;2.40;;
23614;SDS011;11985;49.404;7.734;2022-11-15T06:10:02;5.03;;;2.30;;
23614;SDS011;11985;49.404;7.734;2022-11-15T06:15:13;6.45;;;2.53;;
23614;SDS011;11985;49.404;7.734;2022-11-15T06:20:16;5.50;;;2.10;;
23614;SDS011;11985;49.404;7.734;2022-11-15T06:25:17;5.18;;;1.83;;
23614;SDS011;11985;49.404;7.734;2022-11-15T06:30:19;2.60;;;2.17;;
23614;SDS011;11985;49.404;7.734;2022-11-15T06:35:22;3.53;;;2.05;;
23614;SDS011;11985;49.404;7.734;2022-11-15T06:40:23;6.82;;;2.60;;
23614;SDS011;11985;49.404;7.734;2022-11-15T06:45:25;4.82;;;2.50;;
23614;SDS011;11985;49.404;7.734;2022-11-15T06:50:28;5.88;;;4.03;;
23614;SDS011;11985;49.404;7.734;2022-11-15T06:55:30;4.35;;;2.90;;
23614;SDS011;11985;49.404;7.734;2022-11-15T07:00:31;3.25;;;2.60;;
23614;SDS011;11985;49.404;7.734;2022-11-15T07:05:34;3.60;;;2.50;;
23614;SDS011;11985;49.404;7.734;2022-11-15T07:10:36;3.30;;;2.40;;
23614;SDS011;11985;49.404;7.734;2022-11-15T07:15:38;4.32;;;2.50;;
23614;SDS011;11985;49.404;7.734;2022-11-15T07:20:41;5.45;;;2.35;;
23614;SDS011;11985;49.404;7.734;2022-11-15T07:25:43;6.60;;;2.80;;
23614;SDS011;11985;49.404;7.734;2022-11-15T07:30:45;3.53;;;2.60;;
23614;SDS011;11985;49.404;7.734;2022-11-15T07:35:48;3.35;;;2.15;;
23614;SDS011;11985;49.404;7.734;2022-11-15T07:40:55;4.82;;;2.65;;
23614;SDS011;11985;49.404;7.734;2022-11-15T07:45:58;7.35;;;2.25;;
23614;SDS011;11985;49.404;7.734;2022-11-15T07:51:06;3.03;;;2.22;;
23614;SDS011;11985;49.404;7.734;2022-11-15T07:56:08;6.57;;;2.58;;
23614;SDS011;11985;49.404;7.734;2022-11-15T08:01:11;4.93;;;2.80;;
23614;SDS011;11985;49.404;7.734;2022-11-15T08:06:14;4.72;;;2.42;;
23614;SDS011;11985;49.404;7.734;2022-11-15T08:11:16;4.00;;;2.80;;
23614;SDS011;11985;49.404;7.734;2022-11-15T08:16:17;8.02;;;2.92;;
23614;SDS011;11985;49.404;7.734;2022-11-15T08:21:20;4.25;;;2.67;;
23614;SDS011;11985;49.404;7.734;2022-11-15T08:26:22;4.40;;;2.63;;
23614;SDS011;11985;49.404;7.734;2022-11-15T08:31:24;8.15;;;2.65;;
23614;SDS011;11985;49.404;7.734;2022-11-15T08:36:27;3.42;;;2.53;;
23614;SDS011;11985;49.404;7.734;2022-11-15T08:41:30;3.75;;;2.60;;
23614;SDS011;11985;49.404;7.734;2022-11-15T08:46:35;5.05;;;2.80;;
23614;SDS011;11985;49.404;7.734;2022-11-15T08:51:38;8.68;;;3.28;;
23614;SDS011;11985;49.404;7.734;2022-11-15T08:56:40;9.10;;;2.40;;
23614;SDS011;11985;49.404;7.734;2022-11-15T09:01:41;3.28;;;2.47;;
23614;SDS011;11985;49.404;7.734;2022-11-15T09:06:44;5.22;;;2.65;;
23614;SDS011;11985;49.404;7.734;2022-11-15T09:11:46;7.90;;;2.30;;
23614;SDS011;11985;49.404;7.734;2022-11-15T09:16:48;3.05;;;2.25;;
23614;SDS011;11985;49.404;7.734;2022-11-15T09:21:51;6.38;;;2.30;;
23614;SDS011;11985;49.404;7.734;2022-11-15T09:26:53;4.10;;;2.33;;
23614;SDS011;11985;49.404;7.734;2022-11-15T09:31:55;3.45;;;2.20;;
23614;SDS011;11985;49.404;7.734;2022-11-15T09:36:57;4.25;;;2.40;;
23614;SDS011;11985;49.404;7.734;2022-11-15T09:42:12;4.53;;;2.13;;
23614;SDS011;11985;49.404;7.734;2022-11-15T09:47:38;7.47;;;2.65;;
23614;SDS011;11985;49.404;7.734;2022-11-15T09:52:52;4.47;;;2.25;;
23614;SDS011;11985;49.404;7.734;2022-11-15T09:57:54;3.65;;;2.15;;
23614;SDS011;11985;49.404;7.734;2022-11-15T10:03:06;5.00;;;2.40;;
23614;SDS011;11985;49.404;7.734;2022-11-15T10:08:24;3.17;;;2.08;;
23614;SDS011;11985;49.404;7.734;2022-11-15T10:13:32;3.53;;;1.67;;
23614;SDS011;11985;49.404;7.734;2022-11-15T10:18:37;2.28;;;1.67;;
23614;SDS011;11985;49.404;7.734;2022-11-15T10:23:51;2.77;;;1.80;;
23614;SDS011;11985;49.404;7.734;2022-11-15T10:28:54;4.35;;;1.77;;
23614;SDS011;11985;49.404;7.734;2022-11-15T10:33:58;6.82;;;1.70;;
23614;SDS011;11985;49.404;7.734;2022-11-15T10:39:20;2.05;;;1.38;;
23614;SDS011;11985;49.404;7.734;2022-11-15T10:44:23;1.60;;;1.30;;
23614;SDS011;11985;49.404;7.734;2022-11-15T10:49:26;1.47;;;1.17;;
23614;SDS011;11985;49.404;7.734;2022-11-15T10:54:33;2.72;;;1.60;;
23614;SDS011;11985;49.404;7.734;2022-11-15T10:59:37;6.32;;;3.70;;
23614;SDS011;11985;49.404;7.734;2022-11-15T11:04:48;2.10;;;1.45;;
23614;SDS011;11985;49.404;7.734;2022-11-15T11:09:57;4.38;;;1.38;;
23614;SDS011;11985;49.404;7.734;2022-11-15T11:15:01;4.13;;;1.50;;
23614;SDS011;11985;49.404;7.734;2022-11-15T11:20:14;27.52;;;15.35;;
23614;SDS011;11985;49.404;7.734;2022-11-15T11:25:25;3.53;;;2.47;;
23614;SDS011;11985;49.404;7.734;2022-11-15T11:30:38;1.10;;;1.00;;
23614;SDS011;11985;49.404;7.734;2022-11-15T11:35:50;1.83;;;1.23;;
23614;SDS011;11985;49.404;7.734;2022-11-15T11:41:04;2.03;;;1.00;;
23614;SDS011;11985;49.404;7.734;2022-11-15T11:46:22;1.60;;;1.20;;
23614;SDS011;11985;49.404;7.734;2022-11-15T11:51:38;1.85;;;1.20;;
23614;SDS011;11985;49.404;7.734;2022-11-15T11:56:44;1.13;;;0.98;;
23614;SDS011;11985;49.404;7.734;2022-11-15T12:01:46;1.38;;;1.15;;
23614;SDS011;11985;49.404;7.734;2022-11-15T12:06:49;1.98;;;0.93;;
23614;SDS011;11985;49.404;7.734;2022-11-15T12:17:02;2.33;;;1.30;;
23614;SDS011;11985;49.404;7.734;2022-11-15T12:22:04;2.42;;;1.08;;
23614;SDS011;11985;49.404;7.734;2022-11-15T12:27:15;0.85;;;0.82;;
23614;SDS011;11985;49.404;7.734;2022-11-15T12:32:24;1.27;;;1.00;;
23614;SDS011;11985;49.404;7.734;2022-11-15T12:37:46;1.33;;;0.90;;
23614;SDS011;11985;49.404;7.734;2022-11-15T12:43:01;2.58;;;1.10;;
23614;SDS011;11985;49.404;7.734;2022-11-15T12:54:01;1.83;;;1.10;;
23614;SDS011;11985;49.404;7.734;2022-11-15T12:59:50;1.77;;;1.00;;
23614;SDS011;11985;49.404;7.734;2022-11-15T13:05:56;1.00;;;0.77;;
23614;SDS011;11985;49.404;7.734;2022-11-15T13:10:37;1.10;;;1.00;;
23614;SDS011;11985;49.404;7.734;2022-11-15T13:15:51;1.65;;;1.02;;
23614;SDS011;11985;49.404;7.734;2022-11-15T13:20:56;1.10;;;0.90;;
23614;SDS011;11985;49.404;7.734;2022-11-15T13:26:10;2.03;;;0.98;;
23614;SDS011;11985;49.404;7.734;2022-11-15T13:31:22;1.40;;;0.98;;
23614;SDS011;11985;49.404;7.734;2022-11-15T13:36:26;1.67;;;0.95;;
23614;SDS011;11985;49.404;7.734;2022-11-15T13:41:31;1.67;;;0.95;;
23614;SDS011;11985;49.404;7.734;2022-11-15T13:46:36;1.45;;;1.00;;
23614;SDS011;11985;49.404;7.734;2022-11-15T13:51:39;1.65;;;1.23;;
23614;SDS011;11985;49.404;7.734;2022-11-15T13:56:45;1.13;;;0.90;;
23614;SDS011;11985;49.404;7.734;2022-11-15T14:01:51;2.13;;;1.08;;
23614;SDS011;11985;49.404;7.734;2022-11-15T14:06:54;2.63;;;0.98;;
23614;SDS011;11985;49.404;7.734;2022-11-15T14:11:58;2.03;;;0.70;;
23614;SDS011;11985;49.404;7.734;2022-11-15T14:17:02;3.58;;;0.93;;
23614;SDS011;11985;49.404;7.734;2022-11-15T14:22:09;1.15;;;0.90;;
23614;SDS011;11985;49.404;7.734;2022-11-15T14:27:21;1.52;;;0.90;;
23614;SDS011;11985;49.404;7.734;2022-11-15T14:32:27;1.00;;;0.85;;
23614;SDS011;11985;49.404;7.734;2022-11-15T14:37:30;1.67;;;0.90;;
23614;SDS011;11985;49.404;7.734;2022-11-15T14:47:37;3.53;;;1.00;;
23614;SDS011;11985;49.404;7.734;2022-11-15T14:52:39;4.45;;;1.10;;
23614;SDS011;11985;49.404;7.734;2022-11-15T14:57:41;2.58;;;1.17;;
23614;SDS011;11985;49.404;7.734;2022-11-15T15:02:44;1.48;;;0.88;;
23614;SDS011;11985;49.404;7.734;2022-11-15T15:07:47;1.73;;;0.98;;
23614;SDS011;11985;49.404;7.734;2022-11-15T15:12:49;1.25;;;0.80;;
23614;SDS011;11985;49.404;7.734;2022-11-15T15:17:53;4.47;;;1.00;;
23614;SDS011;11985;49.404;7.734;2022-11-15T15:22:55;2.17;;;0.93;;
23614;SDS011;11985;49.404;7.734;2022-11-15T15:27:56;3.30;;;0.90;;
23614;SDS011;11985;49.404;7.734;2022-11-15T15:32:59;1.30;;;1.10;;
23614;SDS011;11985;49.404;7.734;2022-11-15T15:38:01;1.63;;;1.05;;
23614;SDS011;11985;49.404;7.734;2022-11-15T15:43:03;3.90;;;1.23;;
23614;SDS011;11985;49.404;7.734;2022-11-15T15:48:07;1.27;;;0.88;;
23614;SDS011;11985;49.404;7.734;2022-11-15T15:53:12;2.00;;;1.10;;
23614;SDS011;11985;49.404;7.734;2022-11-15T15:58:15;2.35;;;1.08;;
23614;SDS011;11985;49.404;7.734;2022-11-15T16:03:19;3.22;;;1.55;;
23614;SDS011;11985;49.404;7.734;2022-11-15T16:08:21;1.40;;;0.90;;
23614;SDS011;11985;49.404;7.734;2022-11-15T16:13:23;1.75;;;0.90;;
23614;SDS011;11985;49.404;7.734;2022-11-15T16:18:26;1.30;;;0.93;;
23614;SDS011;11985;49.404;7.734;2022-11-15T16:23:27;2.78;;;0.95;;
23614;SDS011;11985;49.404;7.734;2022-11-15T16:28:30;2.22;;;1.00;;
23614;SDS011;11985;49.404;7.734;2022-11-15T16:33:34;2.90;;;0.88;;
23614;SDS011;11985;49.404;7.734;2022-11-15T16:38:36;2.25;;;1.08;;
23614;SDS011;11985;49.404;7.734;2022-11-15T16:43:39;4.82;;;1.00;;
23614;SDS011;11985;49.404;7.734;2022-11-15T16:48:42;1.50;;;0.85;;
23614;SDS011;11985;49.404;7.734;2022-11-15T16:53:43;3.70;;;1.30;;
23614;SDS011;11985;49.404;7.734;2022-11-15T16:58:45;10.07;;;1.45;;
23614;SDS011;11985;49.404;7.734;2022-11-15T17:03:48;7.40;;;1.48;;
23614;SDS011;11985;49.404;7.734;2022-11-15T17:08:50;5.35;;;1.55;;
23614;SDS011;11985;49.404;7.734;2022-11-15T17:13:56;3.92;;;1.60;;
23614;SDS011;11985;49.404;7.734;2022-11-15T17:18:59;4.07;;;1.13;;
23614;SDS011;11985;49.404;7.734;2022-11-15T17:24:01;3.40;;;2.00;;
23614;SDS011;11985;49.404;7.734;2022-11-15T17:29:02;6.32;;;2.00;;
23614;SDS011;11985;49.404;7.734;2022-11-15T17:34:08;6.07;;;2.00;;
23614;SDS011;11985;49.404;7.734;2022-11-15T17:39:09;5.47;;;2.17;;
23614;SDS011;11985;49.404;7.734;2022-11-15T17:44:11;5.15;;;1.77;;
23614;SDS011;11985;49.404;7.734;2022-11-15T17:49:14;6.55;;;1.73;;
23614;SDS011;11985;49.404;7.734;2022-11-15T17:54:16;2.78;;;1.60;;
23614;SDS011;11985;49.404;7.734;2022-11-15T17:59:18;4.20;;;1.60;;
23614;SDS011;11985;49.404;7.734;2022-11-15T18:04:24;2.65;;;1.40;;
23614;SDS011;11985;49.404;7.734;2022-11-15T18:09:27;3.27;;;1.40;;
23614;SDS011;11985;49.404;7.734;2022-11-15T18:14:29;2.75;;;1.30;;
23614;SDS011;11985;49.404;7.734;2022-11-15T18:19:31;2.58;;;1.58;;
23614;SDS011;11985;49.404;7.734;2022-11-15T18:24:34;3.13;;;1.60;;
23614;SDS011;11985;49.404;7.734;2022-11-15T18:29:37;3.42;;;1.58;;
23614;SDS011;11985;49.404;7.734;2022-11-15T18:34:40;7.65;;;1.85;;
23614;SDS011;11985;49.404;7.734;2022-11-15T18:39:42;4.05;;;2.00;;
23614;SDS011;11985;49.404;7.734;2022-11-15T18:44:43;4.47;;;1.90;;
23614;SDS011;11985;49.404;7.734;2022-11-15T18:49:46;3.05;;;1.75;;
23614;SDS011;11985;49.404;7.734;2022-11-15T18:54:48;5.25;;;1.50;;
23614;SDS011;11985;49.404;7.734;2022-11-15T18:59:49;2.88;;;2.00;;
23614;SDS011;11985;49.404;7.734;2022-11-15T19:04:52;3.88;;;1.70;;
23614;SDS011;11985;49.404;7.734;2022-11-15T19:09:54;5.90;;;1.95;;
23614;SDS011;11985;49.404;7.734;2022-11-15T19:14:56;4.68;;;1.95;;
23614;SDS011;11985;49.404;7.734;2022-11-15T19:19:59;2.85;;;1.77;;
23614;SDS011;11985;49.404;7.734;2022-11-15T19:25:00;3.28;;;2.40;;
23614;SDS011;11985;49.404;7.734;2022-11-15T19:30:04;3.47;;;1.75;;
23614;SDS011;11985;49.404;7.734;2022-11-15T19:35:08;3.80;;;1.40;;
23614;SDS011;11985;49.404;7.734;2022-11-15T19:40:09;5.00;;;1.77;;
23614;SDS011;11985;49.404;7.734;2022-11-15T19:45:11;2.17;;;1.75;;
23614;SDS011;11985;49.404;7.734;2022-11-15T19:50:14;4.30;;;1.73;;
23614;SDS011;11985;49.404;7.734;2022-11-15T19:55:16;3.70;;;1.75;;
23614;SDS011;11985;49.404;7.734;2022-11-15T20:00:18;2.60;;;1.60;;
23614;SDS011;11985;49.404;7.734;2022-11-15T20:05:21;9.20;;;1.80;;
23614;SDS011;11985;49.404;7.734;2022-11-15T20:10:23;5.20;;;1.85;;
23614;SDS011;11985;49.404;7.734;2022-11-15T20:15:24;3.42;;;1.73;;
23614;SDS011;11985;49.404;7.734;2022-11-15T20:20:27;3.58;;;2.25;;
23614;SDS011;11985;49.404;7.734;2022-11-15T20:25:29;3.75;;;1.80;;
23614;SDS011;11985;49.404;7.734;2022-11-15T20:30:31;3.13;;;2.00;;
23614;SDS011;11985;49.404;7.734;2022-11-15T20:35:34;3.05;;;1.85;;
23614;SDS011;11985;49.404;7.734;2022-11-15T20:40:36;6.88;;;2.10;;
23614;SDS011;11985;49.404;7.734;2022-11-15T20:45:39;2.72;;;2.00;;
23614;SDS011;11985;49.404;7.734;2022-11-15T20:50:44;4.53;;;2.10;;
23614;SDS011;11985;49.404;7.734;2022-11-15T20:55:48;5.40;;;2.17;;
23614;SDS011;11985;49.404;7.734;2022-11-15T21:00:50;2.70;;;1.83;;
23614;SDS011;11985;49.404;7.734;2022-11-15T21:05:57;5.70;;;2.15;;
23614;SDS011;11985;49.404;7.734;2022-11-15T21:10:58;5.30;;;2.08;;
23614;SDS011;11985;49.404;7.734;2022-11-15T21:16:18;3.17;;;2.15;;
23614;SDS011;11985;49.404;7.734;2022-11-15T21:21:20;4.30;;;1.92;;
23614;SDS011;11985;49.404;7.734;2022-11-15T21:26:22;2.67;;;1.77;;
23614;SDS011;11985;49.404;7.734;2022-11-15T21:31:24;4.93;;;1.90;;
23614;SDS011;11985;49.404;7.734;2022-11-15T21:36:27;3.78;;;2.00;;
23614;SDS011;11985;49.404;7.734;2022-11-15T21:41:28;5.00;;;1.77;;
23614;SDS011;11985;49.404;7.734;2022-11-15T21:46:30;6.10;;;1.90;;
23614;SDS011;11985;49.404;7.734;2022-11-15T21:51:34;5.30;;;1.80;;
23614;SDS011;11985;49.404;7.734;2022-11-15T21:56:35;6.00;;;2.00;;
23614;SDS011;11985;49.404;7.734;2022-11-15T22:01:37;6.38;;;1.90;;
23614;SDS011;11985;49.404;7.734;2022-11-15T22:06:57;4.70;;;2.03;;
23614;SDS011;11985;49.404;7.734;2022-11-15T22:11:59;3.10;;;1.77;;
23614;SDS011;11985;49.404;7.734;2022-11-15T22:17:01;4.35;;;1.95;;
23614;SDS011;11985;49.404;7.734;2022-11-15T22:22:03;2.53;;;1.90;;
23614;SDS011;11985;49.404;7.734;2022-11-15T22:27:05;4.82;;;2.40;;
23614;SDS011;11985;49.404;7.734;2022-11-15T22:32:07;7.28;;;2.25;;
23614;SDS011;11985;49.404;7.734;2022-11-15T22:37:10;4.40;;;2.28;;
23614;SDS011;11985;49.404;7.734;2022-11-15T22:42:12;6.93;;;2.78;;
23614;SDS011;11985;49.404;7.734;2022-11-15T22:47:13;3.97;;;3.13;;
23614;SDS011;11985;49.404;7.734;2022-11-15T22:52:16;4.88;;;2.47;;
23614;SDS011;11985;49.404;7.734;2022-11-15T22:57:18;4.95;;;2.67;;
23614;SDS011;11985;49.404;7.734;2022-11-15T23:02:19;6.75;;;2.65;;
23614;SDS011;11985;49.404;7.734;2022-11-15T23:07:22;7.03;;;2.50;;
23614;SDS011;11985;49.404;7.734;2022-11-15T23:12:25;4.00;;;2.53;;
23614;SDS011;11985;49.404;7.734;2022-11-15T23:17:44;5.10;;;2.50;;
23614;SDS011;11985;49.404;7.734;2022-11-15T23:22:47;5.95;;;2.25;;
23614;SDS011;11985;49.404;7.734;2022-11-15T23:27:49;4.10;;;3.03;;
23614;SDS011;11985;49.404;7.734;2022-11-15T23:32:51;5.95;;;3.45;;
23614;SDS011;11985;49.404;7.734;2022-11-15T23:38:11;4.85;;;3.00;;
23614;SDS011;11985;49.404;7.734;2022-11-15T23:43:13;8.55;;;3.17;;
23614;SDS011;11985;49.404;7.734;2022-11-15T23:48:15;6.15;;;3.65;;
23614;SDS011;11985;49.404;7.734;2022-11-15T23:53:18;5.82;;;3.60;;
23614;SDS011;11985;49.404;7.734;2022-11-15T23:58:20;7.38;;;3.88;;
